createdAt,value
2018-09-09T00:01:55.830Z,5.27
2018-09-09T00:04:23.488Z,4.60
2018-09-09T00:06:51.143Z,5.20
2018-09-09T00:09:24.419Z,4.70
2018-09-09T00:11:52.135Z,4.97
2018-09-09T00:14:19.792Z,4.60
2018-09-09T00:16:47.360Z,4.57
2018-09-09T00:19:14.910Z,4.90
2018-09-09T00:21:42.552Z,5.30
2018-09-09T00:24:10.261Z,5.23
2018-09-09T00:26:37.882Z,5.10
2018-09-09T00:29:05.932Z,5.10
2018-09-09T00:31:33.542Z,4.90
2018-09-09T00:34:01.200Z,5.00
2018-09-09T00:36:28.807Z,4.83
2018-09-09T00:38:56.390Z,4.87
2018-09-09T00:41:24.037Z,5.07
2018-09-09T00:43:51.666Z,5.20
2018-09-09T00:46:19.307Z,5.10
2018-09-09T00:48:47.274Z,5.43
2018-09-09T00:51:20.583Z,4.90
2018-09-09T00:53:48.400Z,5.27
2018-09-09T00:56:16.724Z,4.90
2018-09-09T00:58:44.371Z,5.43
2018-09-09T01:01:15.648Z,5.30
2018-09-09T01:03:44.932Z,5.23
2018-09-09T01:06:12.502Z,5.23
2018-09-09T01:08:40.130Z,4.93
2018-09-09T01:11:08.248Z,5.70
2018-09-09T01:13:35.882Z,5.33
2018-09-09T01:16:03.797Z,5.80
2018-09-09T01:18:31.647Z,5.43
2018-09-09T01:20:59.342Z,5.87
2018-09-09T01:23:26.946Z,6.03
2018-09-09T01:25:54.587Z,5.80
2018-09-09T01:28:22.161Z,5.83
2018-09-09T01:30:49.737Z,5.80
2018-09-09T01:33:17.358Z,6.20
2018-09-09T01:35:45.316Z,6.47
2018-09-09T01:38:13.073Z,5.70
2018-09-09T01:40:40.728Z,5.97
2018-09-09T01:43:08.377Z,6.20
2018-09-09T01:45:37.708Z,6.33
2018-09-09T01:48:05.409Z,6.70
2018-09-09T01:50:33.059Z,6.43
2018-09-09T01:53:00.926Z,6.03
2018-09-09T01:55:28.472Z,6.20
2018-09-09T01:57:56.087Z,5.73
2018-09-09T02:00:23.816Z,5.20
2018-09-09T02:02:51.459Z,6.10
2018-09-09T02:05:19.163Z,5.30
2018-09-09T02:07:46.827Z,5.37
2018-09-09T02:10:14.498Z,4.83
2018-09-09T02:12:42.156Z,5.10
2018-09-09T02:15:09.859Z,4.80
2018-09-09T02:17:37.494Z,5.73
2018-09-09T02:20:05.184Z,5.30
2018-09-09T02:22:32.824Z,5.43
2018-09-09T02:25:00.493Z,5.63
2018-09-09T02:27:28.194Z,5.70
2018-09-09T02:29:55.850Z,4.93
2018-09-09T02:32:23.356Z,5.83
2018-09-09T02:34:50.981Z,5.97
2018-09-09T02:37:18.638Z,6.03
2018-09-09T02:39:46.309Z,5.33
2018-09-09T02:42:14.048Z,5.57
2018-09-09T02:44:41.730Z,5.77
2018-09-09T02:47:09.664Z,5.10
2018-09-09T02:49:37.316Z,5.40
2018-09-09T02:52:04.960Z,4.67
2018-09-09T02:54:32.626Z,6.17
2018-09-09T02:57:00.270Z,5.50
2018-09-09T02:59:27.883Z,5.70
2018-09-09T03:01:55.508Z,5.80
2018-09-09T03:04:23.171Z,5.83
2018-09-09T03:06:50.809Z,5.37
2018-09-09T03:09:18.455Z,5.53
2018-09-09T03:11:46.136Z,5.60
2018-09-09T03:14:13.765Z,5.00
2018-09-09T03:16:41.433Z,5.40
2018-09-09T03:19:08.955Z,6.10
2018-09-09T03:21:36.525Z,5.10
2018-09-09T03:24:04.192Z,5.40
2018-09-09T03:26:31.837Z,5.50
2018-09-09T03:28:59.449Z,5.50
2018-09-09T03:31:27.130Z,5.67
2018-09-09T03:33:56.505Z,5.67
2018-09-09T03:36:24.356Z,5.23
2018-09-09T03:38:51.887Z,6.00
2018-09-09T03:41:19.444Z,5.47
2018-09-09T03:43:47.098Z,5.90
2018-09-09T03:46:14.761Z,5.93
2018-09-09T03:48:42.417Z,6.17
2018-09-09T03:51:10.069Z,5.60
2018-09-09T03:53:37.730Z,6.37
2018-09-09T03:56:05.425Z,5.70
2018-09-09T03:58:33.341Z,6.17
2018-09-09T04:01:00.973Z,5.83
2018-09-09T04:03:28.635Z,5.90
2018-09-09T04:05:56.564Z,6.13
2018-09-09T04:08:24.229Z,5.10
2018-09-09T04:10:52.033Z,6.07
2018-09-09T04:13:19.692Z,5.77
2018-09-09T04:15:47.343Z,6.00
2018-09-09T04:18:15.158Z,5.73
2018-09-09T04:20:42.817Z,5.30
2018-09-09T04:23:10.549Z,5.10
2018-09-09T04:25:38.172Z,5.90
2018-09-09T04:28:05.914Z,6.00
2018-09-09T04:30:33.607Z,5.13
2018-09-09T04:33:01.242Z,6.13
2018-09-09T04:35:28.889Z,6.40
2018-09-09T04:37:56.575Z,5.30
2018-09-09T04:40:24.250Z,5.70
2018-09-09T04:42:51.897Z,5.67
2018-09-09T04:45:19.616Z,5.53
2018-09-09T04:47:47.486Z,5.23
2018-09-09T04:50:15.177Z,5.63
2018-09-09T04:52:42.834Z,5.57
2018-09-09T04:55:10.710Z,6.10
2018-09-09T04:57:38.344Z,5.07
2018-09-09T05:00:05.954Z,5.43
2018-09-09T05:02:33.659Z,6.03
2018-09-09T05:05:01.357Z,5.80
2018-09-09T05:07:29.026Z,5.57
2018-09-09T05:09:56.719Z,5.43
2018-09-09T05:12:24.450Z,6.00
2018-09-09T05:14:52.091Z,5.23
2018-09-09T05:17:19.821Z,5.50
2018-09-09T05:19:47.544Z,5.50
2018-09-09T05:22:15.283Z,5.83
2018-09-09T05:24:42.841Z,5.73
2018-09-09T05:27:10.431Z,5.70
2018-09-09T05:29:38.061Z,5.40
2018-09-09T05:32:05.804Z,5.60
2018-09-09T05:34:33.557Z,5.60
2018-09-09T05:37:01.282Z,5.17
2018-09-09T05:39:28.917Z,5.30
2018-09-09T05:42:05.750Z,5.43
2018-09-09T05:44:33.433Z,5.33
2018-09-09T05:47:01.345Z,5.43
2018-09-09T05:49:29.000Z,5.90
2018-09-09T05:51:56.726Z,5.63
2018-09-09T05:54:24.641Z,5.87
2018-09-09T05:56:52.302Z,5.63
2018-09-09T05:59:19.954Z,5.90
2018-09-09T06:01:47.567Z,5.43
2018-09-09T06:04:15.128Z,5.97
2018-09-09T06:06:42.816Z,5.70
2018-09-09T06:09:11.434Z,5.60
2018-09-09T06:11:39.559Z,6.27
2018-09-09T06:14:07.146Z,5.63
2018-09-09T06:16:35.172Z,6.10
2018-09-09T06:19:02.936Z,6.17
2018-09-09T06:21:30.743Z,5.90
2018-09-09T06:23:58.470Z,6.53
2018-09-09T06:26:26.011Z,5.67
2018-09-09T06:28:53.869Z,5.73
2018-09-09T06:31:21.479Z,6.30
2018-09-09T06:33:49.207Z,6.20
2018-09-09T06:36:16.848Z,6.93
2018-09-09T06:38:44.722Z,6.20
2018-09-09T06:41:12.532Z,6.50
2018-09-09T06:43:40.199Z,6.20
2018-09-09T06:46:07.909Z,6.63
2018-09-09T06:48:35.671Z,6.53
2018-09-09T06:51:03.678Z,6.10
2018-09-09T06:53:31.330Z,6.03
2018-09-09T06:55:58.977Z,6.43
2018-09-09T06:58:26.632Z,6.40
2018-09-09T07:00:54.285Z,5.87
2018-09-09T07:03:21.927Z,6.30
2018-09-09T07:05:49.676Z,5.83
2018-09-09T07:08:17.329Z,6.20
2018-09-09T07:10:44.973Z,5.10
2018-09-09T07:13:12.640Z,5.50
2018-09-09T07:15:40.255Z,5.93
2018-09-09T07:18:08.017Z,5.43
2018-09-09T07:20:35.688Z,5.30
2018-09-09T07:23:03.346Z,5.63
2018-09-09T07:25:31.200Z,5.70
2018-09-09T07:27:58.829Z,6.27
2018-09-09T07:30:28.209Z,6.17
2018-09-09T07:32:55.857Z,5.97
2018-09-09T07:35:23.508Z,6.03
2018-09-09T07:37:51.145Z,6.50
2018-09-09T07:40:18.838Z,6.43
2018-09-09T07:42:46.405Z,5.60
2018-09-09T07:45:14.056Z,6.33
2018-09-09T07:47:41.691Z,6.30
2018-09-09T07:50:09.390Z,6.00
2018-09-09T07:52:37.113Z,5.93
2018-09-09T07:55:04.853Z,6.07
2018-09-09T07:57:32.473Z,6.53
2018-09-09T08:00:00.264Z,6.10
2018-09-09T08:02:28.237Z,5.40
2018-09-09T08:04:55.856Z,5.30
2018-09-09T08:07:23.521Z,5.67
2018-09-09T08:09:51.321Z,5.63
2018-09-09T08:12:19.022Z,6.20
2018-09-09T08:14:46.704Z,5.93
2018-09-09T08:17:14.360Z,6.03
2018-09-09T08:19:41.981Z,5.53
2018-09-09T08:22:09.917Z,5.67
2018-09-09T08:24:37.707Z,5.17
2018-09-09T08:27:05.393Z,6.07
2018-09-09T08:29:33.012Z,6.93
2018-09-09T08:32:00.538Z,6.23
2018-09-09T08:34:28.290Z,5.87
2018-09-09T08:36:55.978Z,5.10
2018-09-09T08:39:23.748Z,5.47
2018-09-09T08:41:51.404Z,6.47
2018-09-09T08:44:19.072Z,5.67
2018-09-09T08:46:46.727Z,5.47
2018-09-09T08:49:14.462Z,6.03
2018-09-09T08:51:42.080Z,5.40
2018-09-09T08:54:09.843Z,4.80
2018-09-09T08:56:37.552Z,5.28
2018-09-09T08:59:05.250Z,5.60
2018-09-09T09:01:32.972Z,5.33
2018-09-09T09:04:00.656Z,5.97
2018-09-09T09:06:28.347Z,6.00
2018-09-09T09:08:56.023Z,5.40
2018-09-09T09:11:23.815Z,5.23
2018-09-09T09:13:51.614Z,4.80
2018-09-09T09:16:31.137Z,4.93
2018-09-09T09:18:58.942Z,5.08
2018-09-09T09:21:26.613Z,5.10
2018-09-09T09:23:54.253Z,4.90
2018-09-09T09:26:21.941Z,6.22
2018-09-09T09:28:49.617Z,4.67
2018-09-09T09:31:17.358Z,4.85
2018-09-09T09:33:45.001Z,4.78
2018-09-09T09:36:12.690Z,4.58
2018-09-09T09:38:40.385Z,4.72
2018-09-09T09:41:08.130Z,5.62
2018-09-09T09:43:35.811Z,5.25
2018-09-09T09:46:03.399Z,8.00
2018-09-09T09:48:31.036Z,7.42
2018-09-09T09:50:58.722Z,5.55
2018-09-09T09:53:26.445Z,5.45
2018-09-09T09:55:54.010Z,4.85
2018-09-09T09:58:21.864Z,4.70
2018-09-09T10:00:55.240Z,4.58
2018-09-09T10:03:23.044Z,4.85
2018-09-09T10:05:50.684Z,4.37
2018-09-09T10:08:18.338Z,5.50
2018-09-09T10:10:46.001Z,6.87
2018-09-09T10:13:13.573Z,6.75
2018-09-09T10:15:41.228Z,5.22
2018-09-09T10:18:08.915Z,5.05
2018-09-09T10:20:36.636Z,5.78
2018-09-09T10:23:04.272Z,4.50
2018-09-09T10:25:31.976Z,4.22
2018-09-09T10:27:59.512Z,4.30
2018-09-09T10:30:27.158Z,4.92
2018-09-09T10:32:54.816Z,4.45
2018-09-09T10:35:22.619Z,5.17
2018-09-09T10:37:50.260Z,5.40
2018-09-09T10:40:18.093Z,4.10
2018-09-09T10:42:47.248Z,3.30
2018-09-09T10:45:15.098Z,2.90
2018-09-09T10:47:42.845Z,2.98
2018-09-09T10:50:10.508Z,3.98
2018-09-09T10:52:38.249Z,3.42
2018-09-09T10:55:06.054Z,2.50
2018-09-09T10:57:33.695Z,3.40
2018-09-09T11:00:01.242Z,2.90
2018-09-09T11:02:28.888Z,2.37
2018-09-09T11:04:58.573Z,2.87
2018-09-09T11:07:26.312Z,4.55
2018-09-09T11:09:54.028Z,3.15
2018-09-09T11:12:27.270Z,2.85
2018-09-09T11:14:55.024Z,2.42
2018-09-09T11:17:23.440Z,2.70
2018-09-09T11:19:51.162Z,2.67
2018-09-09T11:22:18.886Z,2.20
2018-09-09T11:24:46.595Z,2.00
2018-09-09T11:27:14.323Z,2.58
2018-09-09T11:29:42.052Z,2.33
2018-09-09T11:32:09.708Z,2.47
2018-09-09T11:34:37.428Z,2.15
2018-09-09T11:37:05.215Z,2.10
2018-09-09T11:39:32.850Z,2.02
2018-09-09T11:42:00.744Z,2.80
2018-09-09T11:44:28.436Z,2.98
2018-09-09T11:46:57.010Z,3.08
2018-09-09T11:49:24.772Z,3.00
2018-09-09T11:51:52.476Z,2.52
2018-09-09T11:54:20.432Z,2.15
2018-09-09T11:56:48.239Z,2.10
2018-09-09T11:59:15.864Z,2.35
2018-09-09T12:01:43.511Z,2.30
2018-09-09T12:04:11.159Z,2.15
2018-09-09T12:06:38.822Z,2.20
2018-09-09T12:09:08.066Z,2.00
2018-09-09T12:11:35.816Z,2.15
2018-09-09T12:14:03.537Z,1.87
2018-09-09T12:16:31.325Z,2.05
2018-09-09T12:18:59.069Z,1.92
2018-09-09T12:21:26.753Z,1.80
2018-09-09T12:23:54.310Z,2.47
2018-09-09T12:26:22.121Z,1.90
2018-09-09T12:28:49.678Z,1.87
2018-09-09T12:31:19.191Z,1.80
2018-09-09T12:33:47.022Z,2.10
2018-09-09T12:36:14.717Z,1.70
2018-09-09T12:38:42.444Z,1.90
2018-09-09T12:41:10.258Z,1.95
2018-09-09T12:43:43.524Z,1.70
2018-09-09T12:47:16.320Z,1.60
2018-09-09T12:49:44.019Z,1.80
2018-09-09T12:52:11.717Z,1.80
2018-09-09T12:54:39.355Z,1.65
2018-09-09T12:57:07.023Z,1.57
2018-09-09T12:59:34.720Z,1.92
2018-09-09T13:02:02.452Z,1.67
2018-09-09T13:04:30.105Z,2.22
2018-09-09T13:06:58.214Z,2.40
2018-09-09T13:09:25.937Z,2.42
2018-09-09T13:11:53.660Z,1.72
2018-09-09T13:14:21.530Z,1.50
2018-09-09T13:16:49.177Z,1.70
2018-09-09T13:19:16.918Z,3.02
2018-09-09T13:21:44.564Z,2.80
2018-09-09T13:24:12.216Z,2.12
2018-09-09T13:26:39.773Z,2.00
2018-09-09T13:29:07.512Z,2.30
2018-09-09T13:31:35.209Z,2.40
2018-09-09T13:34:02.806Z,2.50
2018-09-09T13:36:31.930Z,3.00
2018-09-09T13:38:59.723Z,2.62
2018-09-09T13:41:27.390Z,2.67
2018-09-09T13:43:55.944Z,2.40
2018-09-09T13:46:23.594Z,1.70
2018-09-09T13:48:51.184Z,2.12
2018-09-09T13:51:18.948Z,1.60
2018-09-09T13:53:46.887Z,2.10
2018-09-09T13:56:14.524Z,1.60
2018-09-09T13:58:43.918Z,1.82
2018-09-09T14:01:11.656Z,1.50
2018-09-09T14:03:39.335Z,2.42
2018-09-09T14:06:07.072Z,1.70
2018-09-09T14:08:34.729Z,1.85
2018-09-09T14:11:02.283Z,2.08
2018-09-09T14:13:29.920Z,1.60
2018-09-09T14:15:57.682Z,1.70
2018-09-09T14:18:25.352Z,2.00
2018-09-09T14:20:54.764Z,1.70
2018-09-09T14:23:22.441Z,2.10
2018-09-09T14:25:50.087Z,2.08
2018-09-09T14:28:17.781Z,2.50
2018-09-09T14:30:45.463Z,1.87
2018-09-09T14:33:13.116Z,3.58
2018-09-09T14:35:40.792Z,2.30
2018-09-09T14:38:08.437Z,2.90
2018-09-09T14:40:35.998Z,2.35
2018-09-09T14:43:03.724Z,2.00
2018-09-09T14:45:31.405Z,2.70
2018-09-09T14:47:59.068Z,2.35
2018-09-09T14:50:27.004Z,2.05
2018-09-09T14:52:54.719Z,2.05
2018-09-09T14:55:22.337Z,1.90
2018-09-09T14:57:50.024Z,1.90
2018-09-09T15:00:17.647Z,2.12
2018-09-09T15:02:47.084Z,1.80
2018-09-09T15:05:14.617Z,1.70
2018-09-09T15:07:42.366Z,2.25
2018-09-09T15:10:10.034Z,1.90
2018-09-09T15:12:37.728Z,1.77
2018-09-09T15:15:05.444Z,1.87
2018-09-09T15:17:33.074Z,1.82
2018-09-09T15:20:00.682Z,2.35
2018-09-09T15:22:28.317Z,2.17
2018-09-09T15:24:58.054Z,2.15
2018-09-09T15:27:25.750Z,2.27
2018-09-09T15:29:53.339Z,2.02
2018-09-09T15:32:20.944Z,2.00
2018-09-09T15:34:48.657Z,2.65
2018-09-09T15:37:16.365Z,3.27
2018-09-09T15:39:44.032Z,2.00
2018-09-09T15:42:11.618Z,2.27
2018-09-09T15:44:39.223Z,1.67
2018-09-09T15:47:06.888Z,1.60
2018-09-09T15:49:34.565Z,2.92
2018-09-09T15:52:02.272Z,1.60
2018-09-09T15:54:29.945Z,1.47
2018-09-09T15:56:57.728Z,1.98
2018-09-09T15:59:25.352Z,1.92
2018-09-09T16:01:53.082Z,1.60
2018-09-09T16:04:20.835Z,1.75
2018-09-09T16:06:48.521Z,1.70
2018-09-09T16:09:16.233Z,2.27
2018-09-09T16:11:43.898Z,2.30
2018-09-09T16:14:11.443Z,1.75
2018-09-09T16:16:39.230Z,1.80
2018-09-09T16:19:06.955Z,1.82
2018-09-09T16:21:34.758Z,1.98
2018-09-09T16:24:02.438Z,2.00
2018-09-09T16:26:30.141Z,1.62
2018-09-09T16:28:59.614Z,1.60
2018-09-09T16:31:27.239Z,1.55
2018-09-09T16:33:54.986Z,1.47
2018-09-09T16:36:22.732Z,1.60
2018-09-09T16:38:50.416Z,1.70
2018-09-09T16:41:18.068Z,4.03
2018-09-09T16:43:45.754Z,1.75
2018-09-09T16:46:13.428Z,2.67
2018-09-09T16:48:41.080Z,11.12
2018-09-09T16:51:08.760Z,6.87
2018-09-09T16:53:38.201Z,8.48
2018-09-09T16:56:05.844Z,10.35
2018-09-09T16:58:33.617Z,8.35
2018-09-09T17:01:01.272Z,5.20
2018-09-09T17:03:28.887Z,3.20
2018-09-09T17:05:56.560Z,2.30
2018-09-09T17:08:24.393Z,1.95
2018-09-09T17:10:52.110Z,2.20
2018-09-09T17:13:19.720Z,1.92
2018-09-09T17:15:49.289Z,1.80
2018-09-09T17:18:16.988Z,1.57
2018-09-09T17:20:44.689Z,1.57
2018-09-09T17:23:12.373Z,1.50
2018-09-09T17:25:39.924Z,1.52
2018-09-09T17:28:07.651Z,1.55
2018-09-09T17:30:35.208Z,1.60
2018-09-09T17:33:03.001Z,1.65
2018-09-09T17:35:30.616Z,1.60
2018-09-09T17:38:00.367Z,1.67
2018-09-09T17:40:28.741Z,1.80
2018-09-09T17:42:56.524Z,1.45
2018-09-09T17:45:24.155Z,1.67
2018-09-09T17:47:51.783Z,1.80
2018-09-09T17:50:19.461Z,1.92
2018-09-09T17:52:47.138Z,1.90
2018-09-09T17:55:14.981Z,1.75
2018-09-09T17:57:42.590Z,1.80
2018-09-09T18:00:11.700Z,1.82
2018-09-09T18:02:39.429Z,2.10
2018-09-09T18:05:07.399Z,2.10
2018-09-09T18:07:34.999Z,1.92
2018-09-09T18:10:02.685Z,2.08
2018-09-09T18:12:30.361Z,1.90
2018-09-09T18:14:57.995Z,1.65
2018-09-09T18:17:25.603Z,1.70
2018-09-09T18:19:55.953Z,1.90
2018-09-09T18:22:23.501Z,1.70
2018-09-09T18:24:51.142Z,1.90
2018-09-09T18:27:18.825Z,2.10
2018-09-09T18:29:46.517Z,1.98
2018-09-09T18:32:14.153Z,2.08
2018-09-09T18:34:41.944Z,2.00
2018-09-09T18:37:09.755Z,2.30
2018-09-09T18:39:37.468Z,2.45
2018-09-09T18:42:06.755Z,2.47
2018-09-09T18:44:34.465Z,1.98
2018-09-09T18:47:02.131Z,2.10
2018-09-09T18:49:30.311Z,2.25
2018-09-09T18:51:58.633Z,2.02
2018-09-09T18:54:27.062Z,2.62
2018-09-09T18:56:55.552Z,2.30
2018-09-09T18:59:23.257Z,2.27
2018-09-09T19:01:51.429Z,2.60
2018-09-09T19:04:19.951Z,2.33
2018-09-09T19:06:49.397Z,2.30
2018-09-09T19:09:17.873Z,2.40
2018-09-09T19:11:46.182Z,2.65
2018-09-09T19:14:16.019Z,2.67
2018-09-09T19:16:45.352Z,3.10
2018-09-09T19:19:13.769Z,2.80
2018-09-09T19:21:42.297Z,2.70
2018-09-09T19:24:10.704Z,2.40
2018-09-09T19:26:39.510Z,2.60
2018-09-09T19:29:08.229Z,2.70
2018-09-09T19:31:36.880Z,2.80
2018-09-09T19:34:04.507Z,3.33
2018-09-09T19:36:32.415Z,2.63
2018-09-09T19:39:00.083Z,2.50
2018-09-09T19:41:27.786Z,2.80
2018-09-09T19:43:55.335Z,3.30
2018-09-09T19:46:23.106Z,3.73
2018-09-09T19:48:52.649Z,3.47
2018-09-09T19:51:21.579Z,3.03
2018-09-09T19:53:51.033Z,3.37
2018-09-09T19:56:20.015Z,3.60
2018-09-09T19:58:47.775Z,3.87
2018-09-09T20:01:15.425Z,3.17
2018-09-09T20:03:43.078Z,3.67
2018-09-09T20:06:10.709Z,3.80
2018-09-09T20:08:38.434Z,3.07
2018-09-09T20:11:07.553Z,3.53
2018-09-09T20:13:36.967Z,3.60
2018-09-09T20:16:06.417Z,3.57
2018-09-09T20:18:34.101Z,3.90
2018-09-09T20:21:01.729Z,4.47
2018-09-09T20:23:30.040Z,4.60
2018-09-09T20:25:57.649Z,4.83
2018-09-09T20:28:25.178Z,5.53
2018-09-09T20:30:52.831Z,5.20
2018-09-09T20:33:20.500Z,4.67
2018-09-09T20:35:49.062Z,4.47
2018-09-09T20:38:16.644Z,4.27
2018-09-09T20:40:44.259Z,3.50
2018-09-09T20:43:11.962Z,3.83
2018-09-09T20:45:39.612Z,3.43
2018-09-09T20:48:07.338Z,3.20
2018-09-09T20:50:35.069Z,3.13
2018-09-09T20:53:04.598Z,3.23
2018-09-09T20:55:32.486Z,3.20
2018-09-09T20:58:00.145Z,3.03
2018-09-09T21:00:27.851Z,3.13
2018-09-09T21:02:55.428Z,3.13
2018-09-09T21:05:22.963Z,2.87
2018-09-09T21:07:50.828Z,2.83
2018-09-09T21:10:19.994Z,3.03
2018-09-09T21:12:47.621Z,2.67
2018-09-09T21:15:15.245Z,2.60
2018-09-09T21:17:42.835Z,2.90
2018-09-09T21:20:10.476Z,2.73
2018-09-09T21:22:38.154Z,3.33
2018-09-09T21:25:05.839Z,4.83
2018-09-09T21:27:33.592Z,7.80
2018-09-09T21:30:01.205Z,8.30
2018-09-09T21:32:28.820Z,10.73
2018-09-09T21:34:56.455Z,12.93
2018-09-09T21:37:24.201Z,15.90
2018-09-09T21:39:51.890Z,14.57
2018-09-09T21:42:19.514Z,16.23
2018-09-09T21:44:47.134Z,14.03
2018-09-09T21:47:14.816Z,11.57
2018-09-09T21:49:43.094Z,13.30
2018-09-09T21:52:10.765Z,12.50
2018-09-09T21:54:38.380Z,11.50
2018-09-09T21:57:07.099Z,13.80
2018-09-09T21:59:35.335Z,14.27
2018-09-09T22:02:05.732Z,13.13
2018-09-09T22:04:33.400Z,9.13
2018-09-09T22:07:01.381Z,7.47
2018-09-09T22:09:28.987Z,8.90
2018-09-09T22:11:56.667Z,6.63
2018-09-09T22:14:24.327Z,5.00
2018-09-09T22:16:52.014Z,5.03
2018-09-09T22:19:19.609Z,4.17
2018-09-09T22:21:48.096Z,4.37
2018-09-09T22:24:16.455Z,4.80
2018-09-09T22:26:44.284Z,3.67
2018-09-09T22:29:11.988Z,4.60
2018-09-09T22:31:39.664Z,3.50
2018-09-09T22:34:07.228Z,3.13
2018-09-09T22:36:34.936Z,3.10
2018-09-09T22:39:02.653Z,3.03
2018-09-09T22:41:30.168Z,3.77
2018-09-09T22:43:57.850Z,3.60
2018-09-09T22:46:25.486Z,3.57
2018-09-09T22:48:53.125Z,4.20
2018-09-09T22:51:20.767Z,3.40
2018-09-09T22:53:48.338Z,5.13
2018-09-09T22:56:15.980Z,10.30
2018-09-09T22:58:43.513Z,12.70
2018-09-09T23:01:11.264Z,12.17
2018-09-09T23:03:38.929Z,10.37
2018-09-09T23:06:06.653Z,10.70
2018-09-09T23:08:34.257Z,6.30
2018-09-09T23:11:01.948Z,5.03
2018-09-09T23:13:29.585Z,4.70
2018-09-09T23:15:57.321Z,3.80
2018-09-09T23:18:25.014Z,3.53
2018-09-09T23:20:52.692Z,3.47
2018-09-09T23:23:20.349Z,3.37
2018-09-09T23:25:47.992Z,2.93
2018-09-09T23:28:15.692Z,2.60
2018-09-09T23:30:43.372Z,2.43
2018-09-09T23:33:10.978Z,2.73
2018-09-09T23:35:38.650Z,2.37
2018-09-09T23:38:06.277Z,2.77
2018-09-09T23:40:33.827Z,2.43
2018-09-09T23:43:01.579Z,2.40
2018-09-09T23:45:29.298Z,2.70
2018-09-09T23:47:56.933Z,2.20
2018-09-09T23:50:24.572Z,2.20
2018-09-09T23:52:52.221Z,2.37
2018-09-09T23:55:19.870Z,2.60
2018-09-09T23:57:47.413Z,2.20
